Time;durP1;ratioP1;P1;durP2;ratioP2;P2;SDS_P1;SDS_P2;PMS_P1;PMS_P2;Temp;Humidity;BMP_temperature;BMP_pressure;BME280_temperature;BME280_humidity;BME280_pressure;Samples;Min_cycle;Max_cycle;Signal;HPM_P1;HPM_P2
2022/08/23 00:02:26;;;;;;;10.02;5.53;;;;;;;16.93;75.04;101275.06;5067213;28;20045;-64
2022/08/23 00:04:51;;;;;;;8.68;5.88;;;;;;;16.89;74.90;101268.09;5068602;28;20039;-65
2022/08/23 00:07:17;;;;;;;11.18;6.03;;;;;;;16.87;75.32;101266.50;5066754;28;20028;-68
2022/08/23 00:09:43;;;;;;;11.48;6.50;;;;;;;16.85;75.04;101271.28;5068207;28;20040;-65
2022/08/23 00:12:18;;;;;;;9.20;5.90;;;;;;;16.80;74.61;101269.81;5066771;28;20426;-65
2022/08/23 00:14:52;;;;;;;12.20;7.30;;;;;;;16.74;75.92;101269.50;5049082;28;20079;-64
2022/08/23 00:17:18;;;;;;;10.38;6.70;;;;;;;16.66;76.09;101261.94;5048025;28;20489;-65
2022/08/23 00:19:44;;;;;;;13.43;7.07;;;;;;;16.63;75.72;101264.97;5057577;28;20524;-65
2022/08/23 00:22:10;;;;;;;10.98;6.57;;;;;;;16.63;75.57;101272.34;5066493;28;20037;-65
2022/08/23 00:24:37;;;;;;;9.05;6.07;;;;;;;16.59;75.92;101263.50;5067303;28;20035;-65
2022/08/23 00:27:07;;;;;;;9.35;6.28;;;;;;;16.58;75.62;101264.50;5065753;28;20384;-65
2022/08/23 00:29:46;;;;;;;13.63;6.20;;;;;;;16.56;76.17;101264.66;5065699;28;20040;-64
2022/08/23 00:32:17;;;;;;;13.57;6.80;;;;;;;16.52;76.70;101259.59;5066793;28;20032;-65
2022/08/23 00:34:42;;;;;;;12.68;7.15;;;;;;;16.46;76.89;101260.13;5065928;28;20064;-65
2022/08/23 00:37:09;;;;;;;11.70;7.18;;;;;;;16.45;76.67;101259.25;5081872;28;20096;-65
2022/08/23 00:39:35;;;;;;;9.77;6.10;;;;;;;16.42;76.76;101262.31;5067388;28;20060;-65
2022/08/23 00:47:49;;;;;;;11.30;6.63;;;;;;;16.36;77.25;101261.97;5066183;28;20123;-66
2022/08/23 00:50:54;;;;;;;13.27;6.65;;;;;;;16.35;75.94;101262.97;5068214;28;20505;-66
2022/08/23 00:53:23;;;;;;;8.25;6.18;;;;;;;16.30;76.93;101269.75;5043228;28;20061;-65
2022/08/23 00:55:54;;;;;;;8.70;6.13;;;;;;;16.26;77.61;101264.69;5075896;28;20036;-65
2022/08/23 00:58:20;;;;;;;11.95;6.88;;;;;;;16.19;78.81;101263.50;5063114;28;20488;-64
2022/08/23 01:00:48;;;;;;;9.70;5.82;;;;;;;16.11;78.89;101266.94;5048194;28;20121;-64
2022/08/23 01:03:16;;;;;;;7.80;5.85;;;;;;;16.13;78.31;101286.00;5058937;28;20377;-65
2022/08/23 01:05:48;;;;;;;11.93;6.20;;;;;;;16.12;77.86;101281.50;5066049;28;20127;-65
2022/08/23 01:08:14;;;;;;;11.73;6.90;;;;;;;16.07;78.80;101280.03;5065743;28;20388;-67
2022/08/23 01:10:46;;;;;;;13.00;7.15;;;;;;;16.05;78.93;101289.44;5065787;28;20040;-64
2022/08/23 01:13:28;;;;;;;10.65;6.72;;;;;;;16.04;78.41;101271.22;5064661;28;20154;-65
2022/08/23 01:16:18;;;;;;;7.63;5.78;;;;;;;16.03;77.67;101267.59;5050139;28;20286;-64
2022/08/23 01:18:44;;;;;;;10.10;6.57;;;;;;;16.02;78.37;101276.84;5067477;28;20205;-64
2022/08/23 01:21:15;;;;;;;7.15;5.95;;;;;;;15.99;78.32;101270.75;5065340;28;20064;-64
2022/08/23 01:23:50;;;;;;;11.02;5.55;;;;;;;15.95;78.03;101275.66;5062876;28;20036;-66
2022/08/23 01:26:19;;;;;;;9.40;5.72;;;;;;;15.93;78.35;101277.66;5066389;28;20040;-67
2022/08/23 01:28:45;;;;;;;7.97;5.05;;;;;;;15.92;78.80;101280.53;5065867;28;20036;-66
2022/08/23 01:31:13;;;;;;;11.82;5.78;;;;;;;15.88;78.69;101274.44;5066215;28;20040;-65
2022/08/23 01:33:40;;;;;;;11.73;5.18;;;;;;;15.87;78.33;101278.19;5066587;28;20463;-65
2022/08/23 01:36:09;;;;;;;14.18;6.07;;;;;;;15.84;78.58;101275.72;5064176;28;20040;-65
2022/08/23 01:38:36;;;;;;;11.93;6.25;;;;;;;15.81;78.54;101273.25;5063315;28;20040;-64
2022/08/23 01:41:01;;;;;;;11.02;6.55;;;;;;;15.78;78.60;101277.13;5068659;28;20415;-65
2022/08/23 01:43:27;;;;;;;7.88;6.00;;;;;;;15.77;78.30;101277.28;5070519;28;20051;-65
2022/08/23 01:45:53;;;;;;;9.65;6.30;;;;;;;15.74;78.81;101281.16;5063936;28;20606;-64
2022/08/23 01:48:22;;;;;;;11.98;5.93;;;;;;;15.72;78.38;101266.72;5064659;28;20020;-65
2022/08/23 01:50:48;;;;;;;9.35;6.05;;;;;;;15.71;78.94;101277.78;5064686;28;20520;-68
2022/08/23 01:53:14;;;;;;;13.60;6.88;;;;;;;15.72;78.55;101282.31;5046832;28;20137;-65
2022/08/23 01:55:46;;;;;;;9.45;6.47;;;;;;;15.70;78.74;101289.78;5045460;28;20029;-65
2022/08/23 01:58:11;;;;;;;10.73;6.45;;;;;;;15.69;78.52;101288.03;5064341;28;20024;-65
2022/08/23 02:00:40;;;;;;;9.02;5.80;;;;;;;15.60;79.38;101286.94;5085203;28;20043;-65
2022/08/23 02:03:07;;;;;;;8.60;5.75;;;;;;;15.56;79.51;101277.22;5084548;28;20574;-68
2022/08/23 02:05:36;;;;;;;8.55;6.25;;;;;;;15.58;79.22;101286.22;5083541;28;20047;-65
2022/08/23 02:10:49;;;;;;;8.95;6.32;;;;;;;15.59;79.44;101274.22;5064460;28;20044;-64
2022/08/23 02:13:16;;;;;;;10.48;5.93;;;;;;;15.56;79.44;101282.72;5062508;28;20032;-64
2022/08/23 02:15:43;;;;;;;13.90;7.65;;;;;;;15.56;79.66;101283.56;5065346;28;20094;-64
2022/08/23 02:18:10;;;;;;;10.98;6.60;;;;;;;15.59;79.30;101287.94;5064401;28;20045;-65
2022/08/23 02:20:36;;;;;;;11.30;7.20;;;;;;;15.54;80.08;101280.09;5064224;28;20033;-65
2022/08/23 02:23:02;;;;;;;15.55;7.28;;;;;;;15.55;80.24;101279.09;5061899;28;20332;-64
2022/08/23 02:25:27;;;;;;;9.55;6.50;;;;;;;15.54;79.74;101282.00;5064453;28;20471;-65
2022/08/23 02:27:53;;;;;;;9.50;6.43;;;;;;;15.54;79.59;101277.38;5063621;28;20423;-64
2022/08/23 02:30:18;;;;;;;10.48;6.88;;;;;;;15.55;79.94;101273.63;5066045;28;20494;-64
2022/08/23 02:32:44;;;;;;;12.00;7.30;;;;;;;15.56;80.14;101274.47;5064888;28;20028;-66
2022/08/23 02:35:11;;;;;;;10.07;6.32;;;;;;;15.53;80.10;101278.38;5063644;28;20429;-64
2022/08/23 02:37:36;;;;;;;10.52;6.70;;;;;;;15.54;80.26;101282.84;5062210;28;20119;-66
2022/08/23 02:40:04;;;;;;;11.98;7.68;;;;;;;15.52;81.13;101286.72;5063075;28;20046;-64
2022/08/23 02:42:30;;;;;;;11.85;7.82;;;;;;;15.51;80.81;101285.84;5056244;28;20101;-65
2022/08/23 02:44:55;;;;;;;10.40;7.40;;;;;;;15.50;80.85;101284.13;5064479;28;20036;-64
2022/08/23 02:47:22;;;;;;;10.48;7.95;;;;;;;15.51;80.82;101290.47;5065448;28;20048;-65
2022/08/23 02:50:05;;;;;;;10.75;7.32;;;;;;;15.52;81.11;101273.88;5064285;28;20117;-65
2022/08/23 02:52:30;;;;;;;11.43;7.43;;;;;;;15.54;80.85;101279.25;5059807;28;20036;-65
2022/08/23 02:54:55;;;;;;;10.60;7.28;;;;;;;15.56;80.87;101286.31;5065645;28;20029;-65
2022/08/23 02:57:22;;;;;;;9.02;7.32;;;;;;;15.57;80.48;101287.19;5060576;28;20032;-64
2022/08/23 02:59:52;;;;;;;12.73;8.07;;;;;;;15.55;81.17;101291.94;5044055;28;20024;-65
2022/08/23 03:02:18;;;;;;;11.95;7.20;;;;;;;15.52;80.94;101293.06;5043664;28;20049;-65
2022/08/23 03:04:44;;;;;;;11.02;7.57;;;;;;;15.53;80.86;101299.44;5058917;28;20063;-65
2022/08/23 03:07:09;;;;;;;11.25;7.70;;;;;;;15.49;81.81;101295.22;5045435;28;20024;-68
2022/08/23 03:09:36;;;;;;;11.48;7.60;;;;;;;15.53;81.04;101299.44;5063606;28;20028;-66
2022/08/23 03:12:02;;;;;;;10.80;6.80;;;;;;;15.55;81.14;101301.03;5062864;28;20024;-64
2022/08/23 03:14:30;;;;;;;13.27;7.05;;;;;;;15.56;80.55;101297.28;5063178;28;20059;-64
2022/08/23 03:16:56;;;;;;;14.55;7.63;;;;;;;15.53;81.51;101311.28;5061097;28;20559;-65
2022/08/23 03:19:23;;;;;;;16.15;7.15;;;;;;;15.55;81.78;101308.41;5063992;28;20178;-65
2022/08/23 03:21:48;;;;;;;13.65;7.95;;;;;;;15.56;81.74;101311.00;5062711;28;20042;-65
2022/08/23 03:24:16;;;;;;;10.50;7.13;;;;;;;15.57;81.97;101312.75;5063891;28;20502;-64
2022/08/23 03:26:44;;;;;;;12.40;8.45;;;;;;;15.55;83.28;101309.28;5062294;28;20016;-65
2022/08/23 03:29:11;;;;;;;10.63;8.27;;;;;;;15.55;84.31;101308.41;5062410;28;20047;-65
2022/08/23 03:31:54;;;;;;;12.95;7.82;;;;;;;15.55;84.00;101317.50;5065903;28;20039;-65
2022/08/23 03:34:20;;;;;;;11.07;8.05;;;;;;;15.56;82.64;101307.41;5083761;28;20036;-66
2022/08/23 03:36:45;;;;;;;12.73;8.40;;;;;;;15.59;82.62;101309.00;5079649;28;20035;-65
2022/08/23 03:39:12;;;;;;;11.13;7.95;;;;;;;15.63;82.29;101311.34;5063209;28;20036;-65
2022/08/23 03:41:38;;;;;;;9.85;7.45;;;;;;;15.69;82.05;101318.22;5061831;28;20089;-66
2022/08/23 03:44:04;;;;;;;11.63;8.13;;;;;;;15.71;82.10;101318.94;5062282;28;20033;-65
2022/08/23 03:46:32;;;;;;;12.57;7.75;;;;;;;15.70;83.27;101314.47;5062618;28;20028;-65
2022/08/23 03:49:00;;;;;;;13.27;8.52;;;;;;;15.72;82.20;101312.47;5063405;28;20502;-66
2022/08/23 03:51:30;;;;;;;13.70;8.27;;;;;;;15.74;82.37;101313.19;5063210;28;20043;-64
2022/08/23 03:53:58;;;;;;;11.40;8.05;;;;;;;15.76;82.43;101308.44;5058581;28;20036;-68
2022/08/23 03:56:31;;;;;;;12.02;8.20;;;;;;;15.78;82.56;101311.94;5046832;28;20083;-64
2022/08/23 03:58:59;;;;;;;15.10;7.68;;;;;;;15.76;83.29;101317.56;5031144;28;20303;-65
2022/08/23 04:01:24;;;;;;;14.75;8.70;;;;;;;15.76;83.00;101313.91;5047317;28;20423;-65
2022/08/23 04:03:50;;;;;;;8.65;7.40;;;;;;;15.76;82.34;101316.66;5046872;28;20135;-65
2022/08/23 04:06:16;;;;;;;9.52;7.68;;;;;;;15.75;82.71;101312.19;5058737;28;20031;-66
2022/08/23 04:08:43;;;;;;;12.98;8.13;;;;;;;15.72;82.92;101316.09;5064348;28;20020;-64
2022/08/23 04:11:11;;;;;;;12.27;7.68;;;;;;;15.73;82.41;101311.47;5066972;28;20510;-65
2022/08/23 04:13:40;;;;;;;10.73;8.27;;;;;;;15.72;83.26;101316.09;5064370;28;20389;-64
2022/08/23 04:16:06;;;;;;;14.98;7.60;;;;;;;15.71;83.38;101325.28;5068344;28;20047;-64
2022/08/23 04:18:33;;;;;;;16.35;9.13;;;;;;;15.69;84.46;101326.44;5066759;28;20063;-66
2022/08/23 04:21:11;;;;;;;10.15;8.05;;;;;;;15.67;84.61;101325.72;5049622;28;20055;-64
2022/08/23 04:23:38;;;;;;;13.48;9.00;;;;;;;15.63;84.53;101330.56;5064896;28;20040;-64
2022/08/23 04:26:05;;;;;;;10.57;8.55;;;;;;;15.63;84.13;101326.94;5066618;28;20432;-65
2022/08/23 04:28:33;;;;;;;13.20;9.45;;;;;;;15.65;83.59;101328.56;5048343;28;20074;-65
2022/08/23 04:31:00;;;;;;;12.20;8.18;;;;;;;15.63;83.95;101325.06;5050144;28;20037;-65
2022/08/23 04:33:26;;;;;;;12.45;8.57;;;;;;;15.69;83.36;101337.41;5066444;28;20025;-65
2022/08/23 04:35:52;;;;;;;13.35;8.35;;;;;;;15.71;83.00;101338.13;5065423;28;20095;-67
2022/08/23 04:38:19;;;;;;;12.20;8.38;;;;;;;15.74;82.65;101335.16;5064621;28;20566;-65
2022/08/23 04:43:31;;;;;;;9.15;7.30;;;;;;;15.77;83.51;101344.00;5064261;28;20033;-65
2022/08/23 04:45:56;;;;;;;11.43;7.95;;;;;;;15.80;82.44;101343.69;5067838;28;20039;-65
2022/08/23 04:48:30;;;;;;;14.13;8.48;;;;;;;15.85;83.37;101342.44;5050723;28;20501;-65
2022/08/23 04:50:56;;;;;;;10.05;8.35;;;;;;;15.85;83.41;101336.94;5065196;28;20153;-65
2022/08/23 04:53:22;;;;;;;13.60;7.30;;;;;;;15.83;83.04;101348.06;5063970;28;20112;-65
2022/08/23 04:55:55;;;;;;;11.80;7.47;;;;;;;15.85;83.78;101350.66;5066057;28;20488;-65
2022/08/23 04:58:21;;;;;;;12.13;7.57;;;;;;;15.88;82.64;101354.03;5063478;28;20032;-65
2022/08/23 05:00:49;;;;;;;11.20;6.53;;;;;;;15.91;83.11;101351.03;5066710;28;20116;-68
2022/08/23 05:03:15;;;;;;;9.27;7.47;;;;;;;15.96;82.80;101353.38;5065376;28;20119;-65
2022/08/23 05:05:41;;;;;;;9.68;7.60;;;;;;;15.98;83.09;101351.34;5064803;28;20164;-66
2022/08/23 05:08:08;;;;;;;14.00;8.52;;;;;;;16.01;83.38;101354.69;5063635;28;20038;-65
2022/08/23 05:10:33;;;;;;;11.70;8.10;;;;;;;15.99;84.08;101348.50;5065603;28;20098;-66
2022/08/23 05:13:00;;;;;;;13.80;8.13;;;;;;;16.03;83.81;101351.81;5063050;28;20040;-64
2022/08/23 05:15:25;;;;;;;12.77;8.35;;;;;;;16.05;83.96;101352.56;5065872;28;20028;-65
2022/08/23 05:17:57;;;;;;;10.18;7.28;;;;;;;16.10;83.89;101361.25;5065441;28;20159;-65
2022/08/23 05:20:22;;;;;;;9.90;7.60;;;;;;;16.13;83.88;101355.47;5065402;28;20123;-65
2022/08/23 05:22:49;;;;;;;10.68;7.65;;;;;;;16.18;84.13;101349.59;5059342;28;20029;-64
2022/08/23 05:25:49;;;;;;;10.57;7.40;;;;;;;16.22;83.95;101346.44;5073288;28;20059;-65
2022/08/23 05:28:23;;;;;;;12.07;8.02;;;;;;;16.28;83.27;101358.78;5064272;28;20083;-65
2022/08/23 05:31:11;;;;;;;11.10;8.95;;;;;;;16.36;83.51;101361.69;5062430;28;20059;-64
2022/08/23 05:33:43;;;;;;;12.57;8.68;;;;;;;16.42;83.30;101357.56;5045717;28;20055;-64
2022/08/23 05:36:11;;;;;;;14.45;9.45;;;;;;;16.45;83.75;101357.25;5045281;28;20029;-65
2022/08/23 05:38:38;;;;;;;14.55;8.95;;;;;;;16.53;83.42;101362.97;5064717;28;20337;-65
2022/08/23 05:41:05;;;;;;;13.00;9.55;;;;;;;16.58;84.36;101360.66;5065082;28;20028;-65
2022/08/23 05:43:32;;;;;;;15.48;9.05;;;;;;;16.68;83.26;101375.31;5064340;28;20124;-64
2022/08/23 05:45:59;;;;;;;14.77;10.07;;;;;;;16.79;83.38;101382.63;5065348;28;20032;-64
2022/08/23 05:48:24;;;;;;;16.17;10.45;;;;;;;16.89;83.52;101383.53;5064783;28;20487;-65
2022/08/23 05:50:53;;;;;;;16.08;11.88;;;;;;;16.94;83.87;101394.97;5065224;28;20376;-67
2022/08/23 05:53:19;;;;;;;15.52;11.55;;;;;;;16.98;82.93;101385.47;5062907;28;20134;-65
2022/08/23 05:55:45;;;;;;;18.00;13.13;;;;;;;17.07;83.79;101398.38;5063281;28;20075;-67
2022/08/23 05:58:15;;;;;;;16.08;12.85;;;;;;;17.13;83.59;101393.31;5061454;28;20071;-66
2022/08/23 06:00:41;;;;;;;21.95;13.38;;;;;;;17.19;83.94;101401.00;5064034;28;20179;-64
2022/08/23 06:03:07;;;;;;;22.20;15.07;;;;;;;17.26;83.83;101402.19;5057168;28;20041;-64
2022/08/23 06:05:37;;;;;;;20.90;15.88;;;;;;;17.29;81.95;101394.50;5065150;28;20040;-64
2022/08/23 06:08:03;;;;;;;18.25;15.43;;;;;;;17.36;82.16;101400.31;5061195;28;20162;-64
2022/08/23 06:10:31;;;;;;;24.00;17.75;;;;;;;17.40;83.14;101399.03;5064305;28;20086;-65
2022/08/23 06:13:03;;;;;;;21.38;15.75;;;;;;;17.49;82.13;101394.56;5062350;28;20406;-64
2022/08/23 06:15:31;;;;;;;26.02;17.48;;;;;;;17.54;82.69;101400.50;5066327;28;20202;-65
2022/08/23 06:17:57;;;;;;;23.67;18.95;;;;;;;17.59;82.38;101409.19;5064184;28;20081;-65
2022/08/23 06:20:22;;;;;;;25.10;19.55;;;;;;;17.64;82.23;101401.38;5064477;28;20119;-64
2022/08/23 06:23:00;;;;;;;26.95;21.33;;;;;;;17.68;81.83;101400.06;5062641;28;20040;-66
2022/08/23 06:25:25;;;;;;;27.52;21.15;;;;;;;17.72;80.56;101397.88;5064388;28;20090;-65
2022/08/23 06:27:57;;;;;;;22.10;19.80;;;;;;;17.74;81.24;101406.91;5056621;28;20023;-65
2022/08/23 06:30:22;;;;;;;25.50;20.25;;;;;;;17.80;80.78;101404.44;5065927;28;20043;-64
2022/08/23 06:32:50;;;;;;;28.05;21.85;;;;;;;17.84;81.33;101405.03;5065809;28;20040;-65
2022/08/23 06:35:30;;;;;;;27.05;19.33;;;;;;;17.86;80.50;101405.78;5066038;28;20037;-65
2022/08/23 06:38:05;;;;;;;24.85;20.27;;;;;;;17.86;81.63;101411.28;5056780;28;20071;-65
2022/08/23 06:40:49;;;;;;;27.17;21.35;;;;;;;17.85;80.81;101413.13;5065870;28;20048;-64
2022/08/23 06:43:24;;;;;;;25.27;20.15;;;;;;;17.88;80.99;101406.47;5062272;28;20045;-65
2022/08/23 06:46:09;;;;;;;25.17;19.88;;;;;;;17.91;81.31;101406.22;5064306;28;20039;-65
2022/08/23 06:48:35;;;;;;;29.13;21.25;;;;;;;17.94;80.24;101405.03;5063953;28;20071;-65
2022/08/23 06:51:00;;;;;;;29.52;21.80;;;;;;;17.97;80.40;101408.38;5074429;28;20126;-65
2022/08/23 06:53:38;;;;;;;33.03;22.77;;;;;;;17.96;80.35;101405.78;5061201;28;20476;-65
2022/08/23 06:56:39;;;;;;;32.92;22.98;;;;;;;17.96;78.75;101406.63;5043809;28;20037;-65
2022/08/23 06:59:11;;;;;;;30.38;23.20;;;;;;;18.04;78.45;101403.13;5062754;28;20047;-65
2022/08/23 07:02:01;;;;;;;29.98;21.58;;;;;;;18.06;77.92;101409.38;5067782;28;20059;-64
2022/08/23 07:05:03;;;;;;;36.10;21.30;;;;;;;18.09;77.57;101407.22;5067544;28;20071;-64
2022/08/23 07:07:35;;;;;;;29.55;21.77;;;;;;;18.10;77.84;101397.94;5051771;28;20109;-64
2022/08/23 07:10:03;;;;;;;31.42;22.55;;;;;;;18.17;78.01;101403.72;5063624;28;20032;-64
2022/08/23 07:12:29;;;;;;;29.65;19.77;;;;;;;18.21;76.68;101412.56;5060921;28;20037;-66
2022/08/23 07:14:55;;;;;;;29.33;19.67;;;;;;;18.26;77.70;101413.84;5084299;28;20085;-64
2022/08/23 07:17:20;;;;;;;33.15;19.08;;;;;;;18.30;77.11;101409.78;5085198;28;20024;-64
2022/08/23 07:19:48;;;;;;;25.40;19.75;;;;;;;18.35;76.96;101410.19;5073437;28;20440;-65
2022/08/23 07:22:13;;;;;;;29.02;20.85;;;;;;;18.42;77.58;101406.84;5062857;28;20073;-66
2022/08/23 07:24:41;;;;;;;32.25;21.48;;;;;;;18.48;76.87;101418.16;5065046;28;20032;-66
2022/08/23 07:27:08;;;;;;;37.38;22.30;;;;;;;18.57;76.26;101421.91;5065995;28;20606;-65
2022/08/23 07:29:39;;;;;;;27.85;21.05;;;;;;;18.64;76.50;101422.19;5062803;28;20110;-65
2022/08/23 07:32:04;;;;;;;32.05;19.33;;;;;;;18.70;75.69;101418.84;5064153;28;20443;-65
2022/08/23 07:34:30;;;;;;;30.27;19.58;;;;;;;18.77;75.44;101425.50;5064372;28;20111;-64
2022/08/23 07:36:56;;;;;;;33.35;17.85;;;;;;;18.82;75.14;101426.78;5047421;28;20025;-66
2022/08/23 07:39:23;;;;;;;28.38;19.60;;;;;;;18.92;75.05;101425.88;5053043;28;20041;-65
2022/08/23 07:41:51;;;;;;;31.42;19.52;;;;;;;18.98;74.98;101428.91;5049431;28;20032;-66
2022/08/23 07:44:17;;;;;;;27.38;17.95;;;;;;;19.10;73.98;101430.44;5056801;28;20040;-67
2022/08/23 07:46:45;;;;;;;28.50;17.38;;;;;;;19.17;74.65;101433.47;5053377;28;20033;-64
2022/08/23 07:49:12;;;;;;;25.38;17.48;;;;;;;19.26;73.58;101435.31;5054377;28;20067;-64
2022/08/23 07:51:50;;;;;;;25.77;17.77;;;;;;;19.33;74.74;101439.19;5050016;28;20112;-69
2022/08/23 07:54:18;;;;;;;26.88;18.65;;;;;;;19.45;74.66;101439.88;5046983;28;20063;-64
2022/08/23 07:57:07;;;;;;;27.27;18.05;;;;;;;19.66;73.20;101447.03;5052154;28;20442;-65
2022/08/23 07:59:50;;;;;;;29.77;19.30;;;;;;;19.79;73.52;101444.75;5059963;28;20484;-65
2022/08/23 08:02:34;;;;;;;28.20;18.50;;;;;;;19.87;71.85;101445.72;5064700;28;20091;-64
2022/08/23 08:05:00;;;;;;;24.73;17.98;;;;;;;19.98;71.13;101443.72;5066415;28;20123;-64
2022/08/23 08:07:26;;;;;;;29.58;19.55;;;;;;;20.05;71.75;101451.25;5065090;28;20024;-65
2022/08/23 08:09:56;;;;;;;27.45;18.48;;;;;;;20.14;71.41;101441.09;5066843;28;20032;-64
2022/08/23 08:12:22;;;;;;;27.27;17.98;;;;;;;20.26;71.62;101453.66;5065601;28;20042;-64
2022/08/23 08:14:50;;;;;;;26.25;18.27;;;;;;;20.63;73.60;101452.59;5047415;28;20115;-65
2022/08/23 08:17:18;;;;;;;29.65;17.67;;;;;;;21.17;70.75;101456.06;5046993;28;20033;-67
2022/08/23 08:20:12;;;;;;;24.30;16.75;;;;;;;22.03;68.66;101458.59;5063687;28;20044;-64
2022/08/23 08:22:58;;;;;;;24.77;16.02;;;;;;;22.80;64.11;101452.72;5054466;28;20098;-66
2022/08/23 08:26:04;;;;;;;27.15;14.95;;;;;;;23.40;63.68;101457.75;5048069;28;20452;-64
2022/08/23 08:28:31;;;;;;;19.38;14.02;;;;;;;23.92;61.21;101455.28;5046751;28;20472;-65
2022/08/23 08:30:57;;;;;;;24.80;13.73;;;;;;;24.38;60.81;101457.19;5057634;28;20036;-64
2022/08/23 08:33:25;;;;;;;22.70;15.45;;;;;;;24.68;57.02;101459.03;5079963;28;20051;-65
2022/08/23 08:35:52;;;;;;;24.85;14.80;;;;;;;25.11;59.66;101452.88;5086958;28;20040;-66
2022/08/23 08:38:18;;;;;;;24.95;14.85;;;;;;;25.36;55.21;101456.22;5065871;28;20048;-69
2022/08/23 08:40:45;;;;;;;23.75;13.32;;;;;;;25.65;58.51;101455.31;5046773;28;20044;-64
2022/08/23 08:43:49;;;;;;;20.73;11.40;;;;;;;26.04;57.67;101452.16;5046868;28;20402;-65
2022/08/23 08:47:00;;;;;;;16.35;12.93;;;;;;;26.35;57.06;101454.63;5048956;28;20032;-65
2022/08/23 08:49:35;;;;;;;16.20;10.95;;;;;;;26.68;54.92;101459.66;5069713;28;20112;-65
2022/08/23 08:52:19;;;;;;;17.80;11.25;;;;;;;26.80;54.47;101452.44;5061118;28;20041;-66
2022/08/23 08:54:49;;;;;;;21.45;10.75;;;;;;;26.95;52.08;101457.91;5067563;28;20039;-67
2022/08/23 08:57:20;;;;;;;16.40;10.48;;;;;;;27.26;51.39;101465.03;5072118;28;20120;-68
2022/08/23 08:59:59;;;;;;;17.23;10.98;;;;;;;27.24;52.27;101467.19;5066474;28;20024;-65
2022/08/23 09:02:33;;;;;;;18.50;10.45;;;;;;;27.54;53.27;101468.63;5087242;28;20048;-64
2022/08/23 09:05:02;;;;;;;19.50;10.70;;;;;;;27.53;49.05;101468.84;5086386;28;20089;-65
2022/08/23 09:08:03;;;;;;;15.73;9.85;;;;;;;27.80;52.87;101476.31;5064560;28;20025;-65
2022/08/23 09:10:31;;;;;;;12.13;7.97;;;;;;;28.04;51.28;101477.66;5045799;28;20512;-66
2022/08/23 09:13:36;;;;;;;19.38;10.40;;;;;;;28.18;51.74;101475.78;5056299;28;20089;-65
2022/08/23 09:16:36;;;;;;;15.85;10.35;;;;;;;28.71;50.07;101478.66;5066063;28;20484;-65
2022/08/23 09:19:03;;;;;;;10.95;8.50;;;;;;;29.07;46.04;101469.81;5065301;28;20120;-66
2022/08/23 09:21:39;;;;;;;15.73;9.50;;;;;;;28.92;45.28;101471.97;5064466;28;20028;-65
2022/08/23 09:24:05;;;;;;;10.85;6.40;;;;;;;29.16;45.45;101474.13;5076107;28;20097;-66
2022/08/23 09:26:42;;;;;;;15.15;5.47;;;;;;;29.33;44.89;101473.63;5083372;28;20039;-65
2022/08/23 09:29:20;;;;;;;11.57;5.40;;;;;;;29.39;46.75;101481.19;5065404;28;20041;-65
2022/08/23 09:31:51;;;;;;;12.52;6.30;;;;;;;29.78;43.89;101480.19;5065917;28;20059;-64
2022/08/23 09:34:41;;;;;;;11.77;6.10;;;;;;;29.75;46.79;101475.00;5065795;28;20081;-65
2022/08/23 09:37:12;;;;;;;12.95;5.30;;;;;;;29.89;43.86;101475.81;5063058;28;20082;-65
2022/08/23 09:39:51;;;;;;;9.65;4.88;;;;;;;29.98;44.44;101471.66;5064840;28;20082;-66
2022/08/23 09:42:31;;;;;;;9.82;4.97;;;;;;;29.77;43.64;101483.22;5063923;28;20476;-64
2022/08/23 09:44:57;;;;;;;12.02;4.20;;;;;;;29.82;43.57;101475.00;5061116;28;20586;-64
2022/08/23 09:47:49;;;;;;;8.50;4.32;;;;;;;30.14;45.07;101484.38;5044770;28;20021;-65
2022/08/23 09:50:29;;;;;;;11.85;4.55;;;;;;;30.18;43.64;101478.06;5062646;28;20045;-67
2022/08/23 09:53:21;;;;;;;8.13;3.83;;;;;;;30.27;44.12;101472.19;5063428;28;20035;-66
2022/08/23 09:55:53;;;;;;;;;;;;;;;30.43;44.78;101472.50;5086076;28;20089;-65
2022/08/23 09:58:39;;;;;;;10.48;4.72;;;;;;;30.37;43.92;101480.97;5056707;28;19923;-65
2022/08/23 10:01:12;;;;;;;9.95;4.10;;;;;;;30.47;42.47;101472.91;5064863;28;20063;-65
2022/08/23 10:03:40;;;;;;;10.93;4.20;;;;;;;30.74;40.64;101466.00;5072622;28;20108;-66
2022/08/23 10:06:28;;;;;;;12.20;4.63;;;;;;;30.96;41.24;101457.16;5081693;28;20450;-65
2022/08/23 10:08:57;;;;;;;9.05;4.80;;;;;;;30.99;39.24;101462.31;5073262;28;20539;-65
2022/08/23 10:11:29;;;;;;;8.23;4.50;;;;;;;30.98;39.64;101460.59;5084867;28;20124;-65
2022/08/23 10:13:56;;;;;;;9.50;4.20;;;;;;;31.09;41.76;101464.59;5059739;28;20025;-65
2022/08/23 10:16:34;;;;;;;8.13;4.00;;;;;;;31.13;41.13;101455.47;5044753;28;20190;-65
2022/08/23 10:19:24;;;;;;;9.93;4.60;;;;;;;31.38;40.59;101455.41;5044433;28;20124;-69
2022/08/23 10:21:56;;;;;;;8.93;3.35;;;;;;;31.66;39.98;101454.00;5078441;28;20029;-65
2022/08/23 10:25:03;;;;;;;11.38;4.28;;;;;;;31.93;40.55;101452.59;5060626;28;20029;-66
2022/08/23 10:30:36;;;;;;;9.20;3.80;;;;;;;31.81;38.29;101454.47;5044326;28;20051;-65
2022/08/23 10:33:11;;;;;;;9.30;4.18;;;;;;;31.62;37.88;101458.41;5044178;28;20036;-66
2022/08/23 10:36:04;;;;;;;5.70;2.92;;;;;;;31.61;38.63;101462.28;5048614;28;20037;-66
2022/08/23 10:38:37;;;;;;;4.07;2.67;;;;;;;31.97;39.32;101459.47;5044358;28;20496;-65
2022/08/23 10:41:40;;;;;;;9.07;3.13;;;;;;;32.13;38.21;101454.25;5028428;28;20037;-65
2022/08/23 10:44:24;;;;;;;7.57;3.40;;;;;;;32.45;37.48;101446.41;5044314;28;20037;-66
2022/08/23 10:47:14;;;;;;;6.72;2.53;;;;;;;32.59;37.60;101456.34;5044285;28;20488;-65
2022/08/23 10:49:41;;;;;;;8.18;2.63;;;;;;;32.24;36.45;101445.84;5044296;28;20037;-67
2022/08/23 10:52:12;;;;;;;9.48;2.40;;;;;;;32.29;38.76;101449.91;5062329;28;20066;-65
2022/08/23 10:55:04;;;;;;;13.18;2.85;;;;;;;32.14;38.19;101442.75;5063831;28;20085;-65
2022/08/23 10:57:39;;;;;;;9.38;2.45;;;;;;;32.00;38.03;101446.88;5043886;28;20303;-65
2022/08/23 11:00:16;;;;;;;9.02;2.13;;;;;;;31.92;37.57;101439.63;5067948;28;20050;-65
2022/08/23 11:02:51;;;;;;;6.50;2.00;;;;;;;31.99;35.38;101437.56;5071033;28;20128;-65
2022/08/23 11:05:32;;;;;;;8.10;2.38;;;;;;;31.82;36.77;101436.53;5066098;28;20032;-65
2022/08/23 11:08:09;;;;;;;6.78;2.10;;;;;;;31.95;35.99;101435.47;5065998;28;20120;-65
2022/08/23 11:10:39;;;;;;;4.68;1.77;;;;;;;32.12;37.29;101438.47;5068019;28;20028;-65
2022/08/23 11:13:17;;;;;;;7.75;2.17;;;;;;;32.24;36.73;101440.22;5066025;28;20119;-65
2022/08/23 11:15:54;;;;;;;6.85;2.22;;;;;;;32.30;34.45;101431.91;5070064;28;20032;-66
2022/08/23 11:18:37;;;;;;;4.07;2.03;;;;;;;32.36;37.17;101436.56;5066998;28;20036;-65
2022/08/23 11:21:17;;;;;;;9.00;2.33;;;;;;;32.35;35.76;101438.53;5067779;28;20025;-65
2022/08/23 11:23:54;;;;;;;7.18;2.20;;;;;;;32.31;36.51;101442.91;5074765;28;20123;-66
2022/08/23 11:26:25;;;;;;;7.70;2.25;;;;;;;31.90;36.49;101441.81;5084789;28;20479;-66
2022/08/23 11:28:52;;;;;;;;;;;;;;;32.00;39.55;101441.25;5065506;28;20642;-65
2022/08/23 11:31:22;;;;;;;8.68;2.30;;;;;;;31.87;37.02;101438.63;5067772;28;19963;-65
2022/08/23 11:34:04;;;;;;;5.75;2.10;;;;;;;32.18;36.17;101434.69;5067495;28;20044;-68
2022/08/23 11:36:32;;;;;;;6.35;2.30;;;;;;;32.38;35.73;101446.53;5067224;28;20036;-65
2022/08/23 11:38:57;;;;;;;4.75;2.10;;;;;;;32.60;36.35;101434.69;5065617;28;20549;-65
2022/08/23 11:41:29;;;;;;;5.18;2.10;;;;;;;32.90;35.34;101445.84;5066514;28;20128;-65
2022/08/23 11:43:55;;;;;;;6.35;1.95;;;;;;;32.90;34.02;101432.66;5065467;28;20460;-65
2022/08/23 11:46:26;;;;;;;6.20;2.10;;;;;;;32.94;35.21;101438.66;5068833;28;20032;-66
2022/08/23 11:49:17;;;;;;;6.68;2.30;;;;;;;33.06;34.53;101441.47;5066312;28;20385;-64
2022/08/23 11:52:01;;;;;;;6.53;2.13;;;;;;;33.23;31.26;101439.63;5067144;28;20044;-64
2022/08/23 11:54:56;;;;;;;3.78;1.92;;;;;;;33.43;34.62;101437.28;5048393;28;20380;-65